Time;durP1;ratioP1;P1;durP2;ratioP2;P2;SDS_P1;SDS_P2;PMS_P1;PMS_P2;Temp;Humidity;BMP_temperature;BMP_pressure;BME280_temperature;BME280_humidity;BME280_pressure;Samples;Min_cycle;Max_cycle;Signal;HPM_P1;HPM_P2
2021/04/04 00:01:57;;;;;;;68.85;27.35;;;;;;;;;;8329398;28;20040;-68
2021/04/04 00:06:02;;;;;;;74.07;30.02;;;;;;;;;;8328031;28;20070;-68
2021/04/04 00:10:10;;;;;;;65.15;25.73;;;;;;;;;;8327866;28;20450;-69
2021/04/04 00:14:15;;;;;;;70.57;26.67;;;;;;;;;;8326731;28;20540;-68
2021/04/04 00:18:19;;;;;;;73.75;29.55;;;;;;;;;;8325309;28;20040;-68
2021/04/04 00:22:25;;;;;;;74.32;27.67;;;;;;;;;;8328702;28;20356;-68
2021/04/04 00:26:28;;;;;;;71.18;25.77;;;;;;;;;;8327916;28;20552;-68
2021/04/04 00:30:32;;;;;;;85.80;28.80;;;;;;;;;;8326807;28;20359;-69
2021/04/04 00:34:37;;;;;;;81.70;29.55;;;;;;;;;;8326351;28;20060;-69
2021/04/04 00:38:41;;;;;;;71.32;27.38;;;;;;;;;;8327079;28;20387;-68
2021/04/04 00:42:46;;;;;;;77.13;27.63;;;;;;;;;;8326727;28;20047;-70
2021/04/04 00:46:50;;;;;;;72.25;28.48;;;;;;;;;;8326663;28;20048;-69
2021/04/04 00:50:54;;;;;;;65.50;27.60;;;;;;;;;;8326194;28;20505;-68
2021/04/04 00:54:57;;;;;;;69.10;27.10;;;;;;;;;;8326018;28;20358;-69
2021/04/04 00:59:03;;;;;;;58.25;24.55;;;;;;;;;;8323593;28;20475;-72
2021/04/04 01:03:08;;;;;;;63.03;25.88;;;;;;;;;;8314841;28;20060;-68
2021/04/04 01:07:12;;;;;;;55.58;24.25;;;;;;;;;;8292783;28;20066;-68
2021/04/04 01:11:24;;;;;;;62.78;26.75;;;;;;;;;;8292574;28;20057;-69
2021/04/04 01:15:44;;;;;;;53.38;20.55;;;;;;;;;;8290904;28;20525;-69
2021/04/04 01:20:21;;;;;;;46.80;20.67;;;;;;;;;;8291593;28;20348;-69
2021/04/04 01:25:04;;;;;;;50.72;19.95;;;;;;;;;;8292011;28;20060;-68
2021/04/04 01:29:10;;;;;;;44.60;18.88;;;;;;;;;;8292262;28;20078;-70
2021/04/04 01:33:18;;;;;;;50.47;19.70;;;;;;;;;;8291731;28;20378;-68
2021/04/04 01:37:23;;;;;;;51.63;20.00;;;;;;;;;;8290692;28;20493;-68
2021/04/04 01:41:32;;;;;;;45.55;18.77;;;;;;;;;;8291922;28;20440;-69
2021/04/04 01:45:37;;;;;;;;;;;;;;;;;;8290194;28;20074;-69
2021/04/04 01:49:56;;;;;;;35.72;15.65;;;;;;;;;;8291538;28;20259;-68
2021/04/04 01:54:05;;;;;;;37.17;16.40;;;;;;;;;;8289642;28;20457;-69
2021/04/04 01:58:10;;;;;;;;;;;;;;;;;;8291511;28;20036;-69
2021/04/04 02:02:14;;;;;;;35.40;15.38;;;;;;;;;;8288912;28;20351;-68
2021/04/04 02:06:20;;;;;;;39.95;17.05;;;;;;;;;;8288961;28;20483;-68
2021/04/04 02:10:27;;;;;;;34.20;15.57;;;;;;;;;;8289239;28;20474;-68
2021/04/04 02:14:44;;;;;;;42.22;16.27;;;;;;;;;;8290633;28;20058;-68
2021/04/04 02:18:49;;;;;;;44.05;16.98;;;;;;;;;;8289521;28;20405;-68
2021/04/04 02:22:55;;;;;;;39.42;15.85;;;;;;;;;;8289179;28;20343;-68
2021/04/04 02:27:00;;;;;;;31.17;14.20;;;;;;;;;;8273287;28;20388;-67
2021/04/04 02:31:05;;;;;;;31.98;14.70;;;;;;;;;;8291105;28;20375;-69
2021/04/04 02:35:12;;;;;;;43.17;15.48;;;;;;;;;;8305845;28;20390;-68
2021/04/04 02:39:36;;;;;;;36.88;14.80;;;;;;;;;;8288641;28;20444;-68
2021/04/04 02:44:39;;;;;;;35.90;14.70;;;;;;;;;;8289205;28;20359;-68
2021/04/04 02:48:47;;;;;;;33.50;13.73;;;;;;;;;;8272804;28;20406;-68
2021/04/04 02:52:53;;;;;;;29.13;11.88;;;;;;;;;;8287031;28;20486;-69
2021/04/04 02:57:01;;;;;;;30.35;11.00;;;;;;;;;;8288822;28;20486;-68
2021/04/04 03:01:05;;;;;;;30.67;11.88;;;;;;;;;;8289349;28;20452;-68
2021/04/04 03:05:10;;;;;;;22.92;10.70;;;;;;;;;;8289841;28;20340;-67
2021/04/04 03:09:15;;;;;;;24.98;10.80;;;;;;;;;;8288649;28;20363;-67
2021/04/04 03:13:22;;;;;;;34.40;11.50;;;;;;;;;;8288058;28;20386;-68
2021/04/04 03:17:28;;;;;;;42.97;12.70;;;;;;;;;;8288990;28;20455;-69
2021/04/04 03:21:33;;;;;;;18.35;6.15;;;;;;;;;;8290614;28;20482;-69
2021/04/04 03:25:38;;;;;;;33.28;13.45;;;;;;;;;;8294526;28;20098;-68
2021/04/04 03:29:42;;;;;;;36.15;13.50;;;;;;;;;;8293927;28;20471;-68
2021/04/04 03:33:47;;;;;;;20.48;8.68;;;;;;;;;;8295194;28;20375;-69
2021/04/04 03:37:53;;;;;;;20.33;7.25;;;;;;;;;;8295278;28;20052;-68
2021/04/04 03:42:01;;;;;;;13.23;6.10;;;;;;;;;;8293126;28;20410;-67
2021/04/04 03:46:11;;;;;;;12.90;5.38;;;;;;;;;;8293789;28;20448;-67
2021/04/04 03:50:18;;;;;;;12.77;5.70;;;;;;;;;;8294030;28;20475;-68
2021/04/04 03:54:25;;;;;;;11.73;5.68;;;;;;;;;;8293762;28;20337;-68
2021/04/04 03:58:35;;;;;;;15.80;5.05;;;;;;;;;;8309486;28;20381;-67
2021/04/04 04:02:41;;;;;;;9.55;4.13;;;;;;;;;;8278853;28;20060;-68
2021/04/04 04:06:47;;;;;;;16.42;6.80;;;;;;;;;;8293986;28;20359;-68
2021/04/04 04:10:52;;;;;;;14.63;7.35;;;;;;;;;;8294912;28;20470;-68
2021/04/04 04:14:57;;;;;;;14.25;6.10;;;;;;;;;;8292239;28;20479;-68
2021/04/04 04:19:02;;;;;;;12.77;5.72;;;;;;;;;;8293129;28;20403;-67
2021/04/04 04:23:08;;;;;;;15.18;5.38;;;;;;;;;;8292321;28;20479;-67
2021/04/04 04:27:15;;;;;;;11.82;5.35;;;;;;;;;;8293894;28;20075;-68
2021/04/04 04:31:26;;;;;;;16.20;6.22;;;;;;;;;;8275834;28;20371;-68
2021/04/04 04:35:32;;;;;;;12.05;6.05;;;;;;;;;;8290380;28;20430;-67
2021/04/04 04:39:38;;;;;;;13.77;6.43;;;;;;;;;;8294117;28;20482;-67
2021/04/04 04:43:46;;;;;;;14.30;6.90;;;;;;;;;;8292642;28;20436;-66
2021/04/04 04:47:53;;;;;;;22.60;9.20;;;;;;;;;;8291066;28;20052;-66
2021/04/04 04:51:57;;;;;;;21.27;7.85;;;;;;;;;;8292339;28;20379;-67
2021/04/04 04:56:04;;;;;;;21.17;8.40;;;;;;;;;;8294259;28;20486;-67
2021/04/04 05:00:10;;;;;;;49.70;17.95;;;;;;;;;;8291153;28;20616;-67
2021/04/04 05:04:15;;;;;;;55.17;20.90;;;;;;;;;;8294003;28;20048;-67
2021/04/04 05:08:21;;;;;;;40.55;15.93;;;;;;;;;;8291965;28;20460;-68
2021/04/04 05:12:26;;;;;;;44.33;16.80;;;;;;;;;;8289613;28;20071;-67
2021/04/04 05:16:31;;;;;;;40.08;16.38;;;;;;;;;;8292650;28;20462;-68
2021/04/04 05:20:38;;;;;;;30.95;14.40;;;;;;;;;;8293027;28;20063;-67
2021/04/04 05:24:43;;;;;;;25.83;12.27;;;;;;;;;;8291444;28;20379;-67
2021/04/04 05:28:47;;;;;;;15.63;8.15;;;;;;;;;;8289467;28;20379;-69
2021/04/04 05:32:53;;;;;;;16.10;8.43;;;;;;;;;;8291699;28;20425;-68
2021/04/04 05:37:03;;;;;;;17.38;8.07;;;;;;;;;;8291056;28;20387;-68
2021/04/04 05:41:09;;;;;;;19.40;9.55;;;;;;;;;;8292713;28;20053;-68
2021/04/04 05:45:24;;;;;;;15.98;7.18;;;;;;;;;;8288715;28;20471;-69
2021/04/04 05:50:05;;;;;;;12.65;5.47;;;;;;;;;;8290248;28;20402;-68
2021/04/04 05:54:53;;;;;;;16.70;7.38;;;;;;;;;;8290735;28;20053;-69
2021/04/04 05:59:07;;;;;;;14.73;6.88;;;;;;;;;;8290915;28;20383;-69
2021/04/04 06:03:36;;;;;;;17.20;7.57;;;;;;;;;;8288934;28;20491;-69
2021/04/04 06:08:12;;;;;;;18.27;7.53;;;;;;;;;;8290084;28;20388;-69
2021/04/04 06:12:54;;;;;;;15.07;7.05;;;;;;;;;;8289722;28;20471;-69
2021/04/04 06:17:26;;;;;;;16.38;5.90;;;;;;;;;;8290426;28;20048;-69
2021/04/04 06:21:40;;;;;;;11.73;5.30;;;;;;;;;;8289366;28;20395;-70
2021/04/04 06:25:54;;;;;;;12.02;5.40;;;;;;;;;;8290486;28;20370;-69
2021/04/04 06:34:52;;;;;;;19.95;7.13;;;;;;;;;;8285673;28;20352;-70
2021/04/04 06:39:22;;;;;;;18.25;9.43;;;;;;;;;;8290189;28;20379;-69
2021/04/04 06:44:00;;;;;;;14.27;6.25;;;;;;;;;;8291209;28;20048;-70
2021/04/04 06:48:46;;;;;;;11.20;5.30;;;;;;;;;;8290229;28;20522;-69
2021/04/04 06:53:04;;;;;;;12.50;6.05;;;;;;;;;;8288342;28;20336;-69
2021/04/04 06:57:41;;;;;;;15.43;6.28;;;;;;;;;;8287570;28;20368;-70
2021/04/04 07:01:58;;;;;;;15.02;7.30;;;;;;;;;;8294064;28;20509;-70
2021/04/04 07:06:36;;;;;;;12.45;5.68;;;;;;;;;;8296906;28;20366;-70
2021/04/04 07:11:15;;;;;;;10.45;4.50;;;;;;;;;;8292825;28;20467;-70
2021/04/04 07:16:35;;;;;;;16.08;7.88;;;;;;;;;;8283123;28;20333;-70
2021/04/04 07:21:17;;;;;;;12.20;4.32;;;;;;;;;;8257377;28;20349;-70
2021/04/04 07:25:50;;;;;;;12.10;4.07;;;;;;;;;;8275318;28;20486;-70
2021/04/04 07:30:33;;;;;;;9.88;4.22;;;;;;;;;;8295414;28;20562;-71
2021/04/04 07:35:10;;;;;;;8.93;3.75;;;;;;;;;;8293952;28;20478;-70
2021/04/04 07:39:45;;;;;;;6.40;2.80;;;;;;;;;;8295625;28;20075;-70
2021/04/04 07:44:12;;;;;;;9.98;3.22;;;;;;;;;;8294587;28;20422;-71
2021/04/04 07:48:30;;;;;;;8.90;3.03;;;;;;;;;;8295462;28;20078;-70
2021/04/04 07:52:51;;;;;;;6.85;3.38;;;;;;;;;;8292218;28;20383;-70
2021/04/04 07:57:43;;;;;;;16.08;6.63;;;;;;;;;;8292926;28;20489;-71
2021/04/04 08:02:21;;;;;;;8.95;4.13;;;;;;;;;;8288518;28;20369;-70
2021/04/04 08:06:35;;;;;;;7.55;3.03;;;;;;;;;;8295430;28;20056;-70
2021/04/04 08:11:16;;;;;;;7.32;3.42;;;;;;;;;;8292463;28;20413;-70
2021/04/04 08:15:37;;;;;;;12.52;4.32;;;;;;;;;;8285632;28;20370;-70
2021/04/04 08:19:44;;;;;;;7.22;3.38;;;;;;;;;;8292217;28;20456;-69
2021/04/04 08:24:05;;;;;;;11.68;3.78;;;;;;;;;;8293312;28;20463;-70
2021/04/04 08:29:05;;;;;;;13.02;4.20;;;;;;;;;;8293666;28;20348;-70
2021/04/04 08:33:28;;;;;;;6.40;2.83;;;;;;;;;;8285949;28;20471;-70
2021/04/04 08:37:40;;;;;;;6.13;2.97;;;;;;;;;;8292204;28;20358;-70
2021/04/04 08:41:45;;;;;;;5.18;2.10;;;;;;;;;;8294141;28;20402;-71
2021/04/04 08:46:00;;;;;;;6.20;2.55;;;;;;;;;;8291698;28;20345;-70
2021/04/04 08:50:08;;;;;;;6.13;3.65;;;;;;;;;;8291675;28;20074;-71
2021/04/04 08:54:18;;;;;;;4.72;2.38;;;;;;;;;;8290566;28;20427;-69
2021/04/04 08:58:36;;;;;;;6.47;2.45;;;;;;;;;;8291376;28;20388;-70
2021/04/04 09:03:11;;;;;;;9.20;3.38;;;;;;;;;;8291013;28;20410;-70
2021/04/04 09:07:18;;;;;;;4.72;1.83;;;;;;;;;;8291356;28;20359;-70
2021/04/04 09:11:25;;;;;;;5.82;1.95;;;;;;;;;;8290458;28;20463;-70
2021/04/04 09:15:32;;;;;;;8.27;1.63;;;;;;;;;;8290256;28;20505;-70
2021/04/04 09:19:43;;;;;;;8.40;4.03;;;;;;;;;;8273917;28;20041;-70
2021/04/04 09:24:00;;;;;;;3.63;2.28;;;;;;;;;;8290258;28;20487;-70
2021/04/04 09:28:12;;;;;;;3.63;1.73;;;;;;;;;;8289281;28;20363;-72
2021/04/04 09:32:45;;;;;;;9.95;2.25;;;;;;;;;;8292214;28;20459;-69
2021/04/04 09:36:52;;;;;;;3.95;1.63;;;;;;;;;;8291604;28;20375;-70
2021/04/04 09:40:58;;;;;;;4.03;2.87;;;;;;;;;;8289519;28;20391;-69
2021/04/04 09:45:24;;;;;;;3.72;2.10;;;;;;;;;;8290267;28;20366;-69
2021/04/04 09:49:48;;;;;;;5.03;1.45;;;;;;;;;;8290083;28;20372;-69
2021/04/04 09:53:57;;;;;;;5.88;2.67;;;;;;;;;;8292598;28;20466;-70
2021/04/04 09:58:03;;;;;;;12.45;2.15;;;;;;;;;;8290405;28;20459;-70
2021/04/04 10:02:08;;;;;;;67.60;27.23;;;;;;;;;;8290735;28;20341;-70
2021/04/04 10:06:13;;;;;;;3.85;2.10;;;;;;;;;;8292421;28;20453;-70
2021/04/04 10:10:31;;;;;;;5.40;2.15;;;;;;;;;;8290184;28;20063;-71
2021/04/04 10:14:36;;;;;;;3.72;1.55;;;;;;;;;;8289462;28;20409;-71
2021/04/04 10:19:10;;;;;;;3.65;2.10;;;;;;;;;;8290209;28;20460;-70
2021/04/04 10:23:17;;;;;;;8.70;4.03;;;;;;;;;;8290122;28;20463;-70
2021/04/04 10:27:28;;;;;;;5.55;2.17;;;;;;;;;;8290318;28;20339;-70
2021/04/04 10:31:49;;;;;;;5.32;1.50;;;;;;;;;;8273885;28;20074;-70
2021/04/04 10:35:58;;;;;;;5.45;2.10;;;;;;;;;;8291186;28;20489;-70
2021/04/04 10:40:08;;;;;;;5.50;2.33;;;;;;;;;;8288966;28;20455;-70
2021/04/04 10:44:24;;;;;;;6.63;2.30;;;;;;;;;;8289700;28;20497;-70
2021/04/04 10:48:30;;;;;;;4.65;1.90;;;;;;;;;;8288224;28;20482;-70
2021/04/04 10:52:37;;;;;;;10.15;4.15;;;;;;;;;;8289084;28;20478;-70
2021/04/04 10:56:43;;;;;;;3.40;1.70;;;;;;;;;;8288878;28;20521;-72
2021/04/04 11:00:50;;;;;;;2.00;1.00;;;;;;;;;;8288946;28;20390;-69
2021/04/04 11:04:55;;;;;;;2.33;1.13;;;;;;;;;;8289671;28;20463;-69
2021/04/04 11:08:59;;;;;;;6.43;2.25;;;;;;;;;;8288269;28;20490;-70
2021/04/04 11:13:06;;;;;;;4.90;2.50;;;;;;;;;;8289417;28;20057;-69
2021/04/04 11:17:13;;;;;;;10.18;2.83;;;;;;;;;;8287932;28;20382;-70
2021/04/04 11:21:25;;;;;;;3.20;1.70;;;;;;;;;;8288277;28;20375;-69
2021/04/04 11:25:31;;;;;;;4.13;1.83;;;;;;;;;;8289403;28;20356;-70
2021/04/04 11:29:48;;;;;;;5.18;1.75;;;;;;;;;;8271702;28;20447;-72
2021/04/04 11:34:34;;;;;;;2.65;1.50;;;;;;;;;;8289058;28;20436;-69
2021/04/04 11:38:51;;;;;;;4.55;1.63;;;;;;;;;;8287593;28;20074;-69
2021/04/04 11:43:28;;;;;;;3.00;1.10;;;;;;;;;;8289716;28;20459;-70
2021/04/04 11:47:33;;;;;;;2.97;1.37;;;;;;;;;;8292879;28;20355;-70
2021/04/04 11:51:37;;;;;;;3.97;1.25;;;;;;;;;;8293779;28;20064;-69
2021/04/04 11:55:48;;;;;;;4.60;2.10;;;;;;;;;;8293868;28;20056;-71
2021/04/04 11:59:59;;;;;;;4.13;1.52;;;;;;;;;;8309861;28;20060;-70
2021/04/04 12:04:20;;;;;;;2.85;1.25;;;;;;;;;;8295832;28;20079;-71
2021/04/04 12:08:29;;;;;;;9.73;2.55;;;;;;;;;;8295470;28;20422;-71
2021/04/04 12:12:37;;;;;;;5.68;1.70;;;;;;;;;;8309234;28;20360;-70
2021/04/04 12:16:51;;;;;;;3.55;1.20;;;;;;;;;;8294339;28;20466;-74
2021/04/04 12:21:00;;;;;;;3.97;1.80;;;;;;;;;;8294244;28;20383;-69
2021/04/04 12:25:07;;;;;;;2.65;1.40;;;;;;;;;;8293602;28;20056;-69
2021/04/04 12:29:13;;;;;;;7.18;2.92;;;;;;;;;;8293805;28;20364;-69
2021/04/04 12:33:20;;;;;;;8.20;4.20;;;;;;;;;;8291366;28;20462;-70
2021/04/04 12:37:28;;;;;;;8.52;3.10;;;;;;;;;;8293080;28;20360;-70
2021/04/04 12:41:33;;;;;;;5.63;2.73;;;;;;;;;;8292035;28;20475;-69
2021/04/04 12:45:41;;;;;;;5.25;2.40;;;;;;;;;;8289664;28;20115;-69
2021/04/04 12:50:11;;;;;;;4.40;1.98;;;;;;;;;;8290918;28;20383;-69
2021/04/04 12:54:28;;;;;;;2.60;1.50;;;;;;;;;;8289600;28;20375;-70
2021/04/04 12:58:37;;;;;;;6.93;2.60;;;;;;;;;;8287786;28;20368;-70
2021/04/04 13:03:15;;;;;;;4.80;2.42;;;;;;;;;;8292378;28;20367;-69
2021/04/04 13:07:19;;;;;;;9.15;3.00;;;;;;;;;;8286783;28;20048;-69
2021/04/04 13:11:44;;;;;;;6.05;2.28;;;;;;;;;;8291997;28;20451;-70
2021/04/04 13:15:49;;;;;;;17.85;8.70;;;;;;;;;;8291413;28;20440;-69
2021/04/04 13:19:54;;;;;;;3.65;1.60;;;;;;;;;;8290452;28;20391;-69
2021/04/04 13:24:17;;;;;;;9.43;4.00;;;;;;;;;;8292528;28;20378;-70
2021/04/04 13:28:31;;;;;;;8.15;3.13;;;;;;;;;;8290366;28;20366;-70
2021/04/04 13:32:47;;;;;;;3.80;2.20;;;;;;;;;;8290437;28;20475;-70
2021/04/04 13:36:52;;;;;;;6.97;1.80;;;;;;;;;;8289159;28;20421;-70
2021/04/04 13:40:58;;;;;;;5.88;3.42;;;;;;;;;;8291684;28;20382;-70
2021/04/04 13:45:02;;;;;;;11.88;5.53;;;;;;;;;;8288254;28;20453;-69
2021/04/04 13:49:13;;;;;;;8.07;3.80;;;;;;;;;;8291155;28;20382;-69
2021/04/04 13:53:25;;;;;;;6.30;3.42;;;;;;;;;;8288048;28;20049;-69
2021/04/04 13:57:39;;;;;;;12.13;4.00;;;;;;;;;;8290760;28;20364;-70
2021/04/04 14:01:58;;;;;;;22.48;10.27;;;;;;;;;;8289095;28;20052;-69
2021/04/04 14:06:08;;;;;;;8.23;5.13;;;;;;;;;;8288951;28;20052;-69
2021/04/04 14:10:14;;;;;;;7.18;3.22;;;;;;;;;;8288943;28;20406;-69
2021/04/04 14:14:24;;;;;;;10.93;6.50;;;;;;;;;;8290444;28;20379;-71
2021/04/04 14:18:37;;;;;;;17.75;8.73;;;;;;;;;;8289864;28;20056;-69
2021/04/04 14:22:43;;;;;;;9.05;6.65;;;;;;;;;;8290394;28;20356;-70
2021/04/04 14:26:48;;;;;;;10.52;6.25;;;;;;;;;;8290002;28;20512;-69
2021/04/04 14:30:53;;;;;;;11.40;4.28;;;;;;;;;;8290645;28;20347;-69
2021/04/04 14:34:58;;;;;;;16.95;9.60;;;;;;;;;;8290683;28;20466;-69
2021/04/04 14:39:03;;;;;;;11.25;7.22;;;;;;;;;;8289560;28;20386;-69
2021/04/04 14:43:23;;;;;;;8.50;5.07;;;;;;;;;;8289873;28;20478;-69
2021/04/04 14:47:28;;;;;;;9.90;5.72;;;;;;;;;;8289834;28;20469;-69
2021/04/04 14:51:32;;;;;;;11.00;5.40;;;;;;;;;;8272137;28;20485;-70
2021/04/04 14:55:51;;;;;;;12.63;7.70;;;;;;;;;;8305279;28;20075;-70
2021/04/04 14:59:55;;;;;;;17.98;9.25;;;;;;;;;;8289952;28;20320;-69
2021/04/04 15:04:00;;;;;;;83.13;42.35;;;;;;;;;;8289966;28;20374;-69
2021/04/04 15:08:04;;;;;;;49.50;25.15;;;;;;;;;;8289611;28;20451;-70
2021/04/04 15:12:10;;;;;;;65.93;34.03;;;;;;;;;;8290396;28;20082;-69
2021/04/04 15:16:14;;;;;;;367.67;182.40;;;;;;;;;;8288990;28;20475;-70
2021/04/04 15:20:19;;;;;;;29.98;15.45;;;;;;;;;;8295807;28;20463;-69
2021/04/04 15:24:24;;;;;;;18.77;9.88;;;;;;;;;;8293007;28;20471;-69
2021/04/04 15:28:28;;;;;;;5.72;2.97;;;;;;;;;;8293682;28;20333;-69
2021/04/04 15:32:34;;;;;;;10.20;6.53;;;;;;;;;;8295982;28;20474;-69
2021/04/04 15:36:38;;;;;;;6.95;3.40;;;;;;;;;;8294465;28;20063;-69
2021/04/04 15:40:44;;;;;;;10.73;5.22;;;;;;;;;;8292796;28;20447;-70
2021/04/04 15:44:48;;;;;;;10.30;5.45;;;;;;;;;;8294635;28;20340;-69
2021/04/04 15:48:53;;;;;;;8.85;5.63;;;;;;;;;;8293778;28;20402;-69
2021/04/04 15:53:00;;;;;;;7.30;5.22;;;;;;;;;;8295254;28;20356;-70
2021/04/04 15:57:05;;;;;;;10.60;6.35;;;;;;;;;;8292291;28;20386;-69
2021/04/04 16:01:09;;;;;;;10.73;5.55;;;;;;;;;;8292034;28;20390;-69
2021/04/04 16:05:16;;;;;;;7.25;3.97;;;;;;;;;;8293904;28;20482;-69
2021/04/04 16:09:21;;;;;;;9.45;4.07;;;;;;;;;;8293763;28;20761;-69
2021/04/04 16:13:25;;;;;;;12.25;5.20;;;;;;;;;;8293852;28;20468;-70
2021/04/04 16:17:29;;;;;;;121.57;57.13;;;;;;;;;;8294705;28;20346;-69
2021/04/04 16:21:33;;;;;;;150.35;69.57;;;;;;;;;;8293876;28;20071;-70
2021/04/04 16:25:40;;;;;;;173.43;79.35;;;;;;;;;;8293815;28;20478;-69
2021/04/04 16:29:44;;;;;;;376.70;169.05;;;;;;;;;;8293959;28;20379;-69
2021/04/04 16:33:49;;;;;;;203.35;84.78;;;;;;;;;;8294155;28;20459;-70
2021/04/04 16:37:55;;;;;;;334.88;139.18;;;;;;;;;;8294533;28;20360;-70
2021/04/04 16:41:59;;;;;;;319.13;135.40;;;;;;;;;;8291399;28;20439;-71
2021/04/04 16:46:04;;;;;;;135.63;58.47;;;;;;;;;;8290412;28;20467;-70
2021/04/04 16:50:08;;;;;;;86.32;41.20;;;;;;;;;;8291611;28;20497;-69
2021/04/04 16:54:13;;;;;;;76.55;35.05;;;;;;;;;;8293433;28;20368;-69
2021/04/04 16:58:22;;;;;;;70.72;29.30;;;;;;;;;;8291844;28;20040;-69
2021/04/04 17:02:26;;;;;;;61.42;22.25;;;;;;;;;;8291215;28;20044;-69
2021/04/04 17:06:32;;;;;;;67.15;23.38;;;;;;;;;;8290415;28;20056;-70
2021/04/04 17:10:36;;;;;;;24.75;11.15;;;;;;;;;;8294225;28;20379;-69
2021/04/04 17:14:41;;;;;;;78.93;27.50;;;;;;;;;;8293690;28;20398;-69
2021/04/04 17:18:45;;;;;;;30.30;12.68;;;;;;;;;;8291547;28;20352;-69
2021/04/04 17:22:50;;;;;;;20.65;10.80;;;;;;;;;;8293440;28;20071;-69
2021/04/04 17:26:54;;;;;;;17.27;9.63;;;;;;;;;;8292572;28;20048;-71
2021/04/04 17:30:59;;;;;;;22.30;9.60;;;;;;;;;;8290317;28;20344;-69
2021/04/04 17:35:03;;;;;;;41.65;17.02;;;;;;;;;;8290371;28;20098;-69
2021/04/04 17:39:11;;;;;;;73.50;28.50;;;;;;;;;;8290937;28;20052;-69
2021/04/04 17:43:16;;;;;;;85.68;40.53;;;;;;;;;;8306779;28;20447;-69
2021/04/04 17:47:24;;;;;;;87.28;37.58;;;;;;;;;;8293394;28;20402;-70
2021/04/04 17:51:29;;;;;;;91.63;33.17;;;;;;;;;;8292773;28;20463;-70
2021/04/04 17:55:33;;;;;;;79.30;29.25;;;;;;;;;;8291547;28;20475;-71
2021/04/04 17:59:43;;;;;;;74.50;28.80;;;;;;;;;;8304601;28;20463;-70
2021/04/04 18:03:49;;;;;;;51.50;21.38;;;;;;;;;;8290111;28;20459;-70
2021/04/04 18:12:21;;;;;;;31.40;14.40;;;;;;;;;;8276166;28;20451;-71
2021/04/04 18:16:26;;;;;;;32.08;12.35;;;;;;;;;;8290483;28;20364;-69
2021/04/04 18:20:31;;;;;;;20.35;7.88;;;;;;;;;;8289331;28;20066;-69
2021/04/04 18:24:35;;;;;;;19.95;8.50;;;;;;;;;;8290662;28;20067;-69
2021/04/04 18:28:40;;;;;;;22.63;9.57;;;;;;;;;;8290894;28;20469;-70
2021/04/04 18:32:45;;;;;;;32.80;8.55;;;;;;;;;;8289880;28;20178;-69
2021/04/04 18:36:50;;;;;;;60.65;12.88;;;;;;;;;;8289952;28;20456;-68
2021/04/04 18:40:54;;;;;;;36.75;10.65;;;;;;;;;;8304807;28;20075;-70
2021/04/04 18:44:59;;;;;;;19.23;9.00;;;;;;;;;;8289925;28;20439;-71
2021/04/04 18:49:04;;;;;;;51.97;13.02;;;;;;;;;;8289299;28;20344;-71
2021/04/04 18:53:09;;;;;;;48.53;12.05;;;;;;;;;;8290904;28;20490;-69
2021/04/04 18:57:13;;;;;;;55.80;14.05;;;;;;;;;;8296627;28;20490;-70
2021/04/04 19:01:18;;;;;;;58.85;21.15;;;;;;;;;;8310139;28;20486;-70
2021/04/04 19:05:25;;;;;;;41.55;12.07;;;;;;;;;;8311985;28;20479;-69
2021/04/04 19:09:30;;;;;;;119.97;24.13;;;;;;;;;;8295261;28;20498;-69
2021/04/04 19:13:35;;;;;;;100.28;19.25;;;;;;;;;;8294912;28;20494;-67
2021/04/04 19:17:42;;;;;;;32.25;11.27;;;;;;;;;;8296219;28;20600;-67
2021/04/04 19:21:46;;;;;;;75.32;18.33;;;;;;;;;;8277936;28;20070;-67
2021/04/04 19:25:55;;;;;;;34.58;10.32;;;;;;;;;;8295148;28;20056;-67
2021/04/04 19:30:00;;;;;;;53.15;14.65;;;;;;;;;;8294142;28;20484;-67
2021/04/04 19:34:05;;;;;;;49.95;14.18;;;;;;;;;;8295334;28;20360;-68
2021/04/04 19:38:09;;;;;;;59.67;15.05;;;;;;;;;;8294794;28;20394;-66
2021/04/04 19:42:14;;;;;;;66.57;17.15;;;;;;;;;;8292912;28;20049;-71
2021/04/04 19:46:18;;;;;;;49.85;14.18;;;;;;;;;;8294908;28;20052;-66
2021/04/04 19:50:23;;;;;;;40.70;13.65;;;;;;;;;;8293478;28;20044;-66
2021/04/04 19:54:28;;;;;;;49.00;15.05;;;;;;;;;;8292049;28;20471;-67
2021/04/04 19:58:34;;;;;;;50.53;15.35;;;;;;;;;;8292324;28;20328;-67
2021/04/04 20:02:39;;;;;;;43.47;14.02;;;;;;;;;;8291765;28;20475;-66
2021/04/04 20:06:45;;;;;;;52.35;15.18;;;;;;;;;;8291802;28;20364;-70
2021/04/04 20:10:49;;;;;;;52.85;15.88;;;;;;;;;;8291440;28;20048;-69
2021/04/04 20:14:55;;;;;;;46.90;15.25;;;;;;;;;;8293488;28;20363;-68
2021/04/04 20:18:59;;;;;;;40.20;13.57;;;;;;;;;;8294299;28;20447;-68
2021/04/04 20:23:04;;;;;;;33.35;12.98;;;;;;;;;;8291801;28;20432;-69
2021/04/04 20:27:11;;;;;;;60.65;17.55;;;;;;;;;;8291348;28;20458;-68
2021/04/04 20:31:15;;;;;;;41.30;15.50;;;;;;;;;;8292307;28;20379;-67
2021/04/04 20:35:28;;;;;;;33.15;13.23;;;;;;;;;;8292588;28;20103;-67
2021/04/04 20:39:32;;;;;;;37.13;13.40;;;;;;;;;;8292067;28;20383;-67
2021/04/04 20:43:37;;;;;;;23.30;10.80;;;;;;;;;;8292422;28;20494;-69
2021/04/04 20:47:42;;;;;;;36.40;10.98;;;;;;;;;;8291381;28;20371;-68
2021/04/04 20:51:46;;;;;;;30.52;10.40;;;;;;;;;;8264994;28;764861;-67
2021/04/04 20:55:51;;;;;;;29.00;10.73;;;;;;;;;;8293967;28;20493;-68
2021/04/04 20:59:56;;;;;;;24.88;10.00;;;;;;;;;;8292345;28;20452;-67
2021/04/04 21:04:00;;;;;;;33.55;10.90;;;;;;;;;;8291734;28;20455;-68
2021/04/04 21:08:05;;;;;;;28.63;10.43;;;;;;;;;;8294763;28;20522;-67
2021/04/04 21:12:10;;;;;;;25.80;9.25;;;;;;;;;;8295669;28;20367;-67
2021/04/04 21:16:14;;;;;;;22.38;9.18;;;;;;;;;;8292558;28;20455;-66
2021/04/04 21:20:20;;;;;;;22.13;8.98;;;;;;;;;;8291538;28;20462;-67
2021/04/04 21:24:25;;;;;;;21.13;9.38;;;;;;;;;;8289879;28;20368;-67
2021/04/04 21:28:30;;;;;;;31.73;11.48;;;;;;;;;;8293915;28;20466;-67
2021/04/04 21:32:35;;;;;;;23.65;8.77;;;;;;;;;;8291832;28;20439;-66
2021/04/04 21:36:39;;;;;;;26.80;9.43;;;;;;;;;;8292092;28;20071;-67
2021/04/04 21:40:46;;;;;;;21.98;9.52;;;;;;;;;;8291194;28;20068;-66
2021/04/04 21:44:52;;;;;;;27.88;9.18;;;;;;;;;;8292756;28;20070;-68
2021/04/04 21:48:56;;;;;;;27.05;9.20;;;;;;;;;;8292972;28;20478;-66
2021/04/04 21:53:00;;;;;;;28.52;9.82;;;;;;;;;;8290762;28;20383;-66
2021/04/04 21:57:06;;;;;;;31.63;9.75;;;;;;;;;;8290709;28;20383;-66
2021/04/04 22:01:12;;;;;;;25.92;8.98;;;;;;;;;;8290294;28;20487;-67
2021/04/04 22:05:19;;;;;;;28.10;10.50;;;;;;;;;;8290728;28;20395;-66
2021/04/04 22:09:25;;;;;;;25.07;9.67;;;;;;;;;;8290728;28;20378;-66
2021/04/04 22:13:31;;;;;;;27.60;10.38;;;;;;;;;;8291337;28;20048;-66
2021/04/04 22:17:35;;;;;;;27.05;10.77;;;;;;;;;;8291499;28;20482;-66
2021/04/04 22:22:00;;;;;;;30.63;11.80;;;;;;;;;;8289908;28;20056;-65
2021/04/04 22:26:09;;;;;;;34.63;12.90;;;;;;;;;;8289880;28;20057;-65
2021/04/04 22:30:21;;;;;;;35.35;12.82;;;;;;;;;;8291448;28;20045;-66
2021/04/04 22:34:26;;;;;;;43.55;13.70;;;;;;;;;;8290485;28;20405;-66
2021/04/04 22:38:31;;;;;;;34.40;15.20;;;;;;;;;;8289310;28;20371;-65
2021/04/04 22:42:37;;;;;;;38.70;15.20;;;;;;;;;;8289691;28;20371;-66
2021/04/04 22:46:43;;;;;;;43.90;15.00;;;;;;;;;;8291245;28;20052;-67
2021/04/04 22:50:47;;;;;;;37.65;14.20;;;;;;;;;;8289931;28;20387;-65
2021/04/04 22:54:52;;;;;;;45.35;15.57;;;;;;;;;;8292095;28;20390;-66
2021/04/04 22:58:56;;;;;;;41.03;16.58;;;;;;;;;;8290726;28;20459;-65
2021/04/04 23:03:00;;;;;;;49.20;16.33;;;;;;;;;;8289544;28;20486;-65
2021/04/04 23:07:05;;;;;;;45.78;17.45;;;;;;;;;;8290918;28;20493;-66
2021/04/04 23:11:10;;;;;;;50.03;17.90;;;;;;;;;;8291241;28;20489;-65
2021/04/04 23:15:16;;;;;;;46.13;17.77;;;;;;;;;;8289346;28;20447;-66
2021/04/04 23:19:20;;;;;;;51.42;19.27;;;;;;;;;;8290242;28;20358;-65
2021/04/04 23:23:24;;;;;;;54.72;17.90;;;;;;;;;;8289561;28;20049;-65
2021/04/04 23:27:29;;;;;;;46.47;18.40;;;;;;;;;;8288994;28;20513;-65
2021/04/04 23:31:33;;;;;;;51.70;18.40;;;;;;;;;;8287670;28;20052;-66
2021/04/04 23:35:37;;;;;;;47.42;19.08;;;;;;;;;;8290033;28;20475;-65
2021/04/04 23:39:42;;;;;;;54.17;20.98;;;;;;;;;;8292558;28;20463;-66
2021/04/04 23:43:47;;;;;;;53.80;18.83;;;;;;;;;;8296631;28;20363;-65
2021/04/04 23:47:51;;;;;;;52.55;20.00;;;;;;;;;;8293086;28;20467;-65
2021/04/04 23:51:56;;;;;;;45.75;18.65;;;;;;;;;;8294648;28;20387;-65
2021/04/04 23:56:01;;;;;;;57.90;19.77;;;;;;;;;;8294813;28;20474;-65
